Map

Track Data

SID SEASON NUMBER BASIN SUBBASIN NAME ISO_TIME NATURE LAT LON WMO_WIND WMO_PRES WMO_AGENCY TRACK_TYPE DIST2LAND LANDFALL IFLAG USA_AGENCY USA_ATCF_ID USA_LAT USA_LON USA_RECORD USA_STATUS USA_WIND USA_PRES USA_SSHS USA_R34_NE USA_R34_SE USA_R34_SW USA_R34_NW USA_R50_NE USA_R50_SE USA_R50_SW USA_R50_NW USA_R64_NE USA_R64_SE USA_R64_SW USA_R64_NW USA_POCI USA_ROCI USA_RMW USA_EYE TOKYO_LAT TOKYO_LON TOKYO_GRADE TOKYO_WIND TOKYO_PRES TOKYO_R50_DIR TOKYO_R50_LONG TOKYO_R50_SHORT TOKYO_R30_DIR TOKYO_R30_LONG TOKYO_R30_SHORT TOKYO_LAND CMA_LAT CMA_LON CMA_CAT CMA_WIND CMA_PRES HKO_LAT HKO_LON HKO_CAT HKO_WIND HKO_PRES NEWDELHI_LAT NEWDELHI_LON NEWDELHI_GRADE NEWDELHI_WIND NEWDELHI_PRES NEWDELHI_CI NEWDELHI_DP NEWDELHI_POCI REUNION_LAT REUNION_LON REUNION_TYPE REUNION_WIND REUNION_PRES REUNION_TNUM REUNION_CI REUNION_RMW REUNION_R34_NE REUNION_R34_SE REUNION_R34_SW REUNION_R34_NW REUNION_R50_NE REUNION_R50_SE REUNION_R50_SW REUNION_R50_NW REUNION_R64_NE REUNION_R64_SE REUNION_R64_SW REUNION_R64_NW BOM_LAT BOM_LON BOM_TYPE BOM_WIND BOM_PRES BOM_TNUM BOM_CI BOM_RMW BOM_R34_NE BOM_R34_SE BOM_R34_SW BOM_R34_NW BOM_R50_NE BOM_R50_SE BOM_R50_SW BOM_R50_NW BOM_R64_NE BOM_R64_SE BOM_R64_SW BOM_R64_NW BOM_ROCI BOM_POCI BOM_EYE BOM_POS_METHOD BOM_PRES_METHOD NADI_LAT NADI_LON NADI_CAT NADI_WIND NADI_PRES WELLINGTON_LAT WELLINGTON_LON WELLINGTON_WIND WELLINGTON_PRES DS824_LAT DS824_LON DS824_STAGE DS824_WIND DS824_PRES TD9636_LAT TD9636_LON TD9636_STAGE TD9636_WIND TD9636_PRES TD9635_LAT TD9635_LON TD9635_WIND TD9635_PRES TD9635_ROCI NEUMANN_LAT NEUMANN_LON NEUMANN_CLASS NEUMANN_WIND NEUMANN_PRES MLC_LAT MLC_LON MLC_CLASS MLC_WIND MLC_PRES USA_GUST BOM_GUST BOM_GUST_PER REUNION_GUST REUNION_GUST_PER USA_SEAHGT USA_SEARAD_NE USA_SEARAD_SE USA_SEARAD_SW USA_SEARAD_NW STORM_SPEED STORM_DIR
1933285N08138 1933 65 WP MM NOT_NAMED 1933-10-11 22:00:00 NR 8.20000 138.400 main 1044 1038 __________O___ -1 8.20000 138.400 7 11 285
1933285N08138 1933 65 WP MM NOT_NAMED 1933-10-12 00:00:00 NR 8.29314 138.052 main 1045 1037 __________P___ -1 8.29314 138.052 7 11 286
1933285N08138 1933 65 WP MM NOT_NAMED 1933-10-12 03:00:00 NR 8.44141 137.522 main 1041 1046 __________P___ -1 8.44141 137.522 7 11 287
1933285N08138 1933 65 WP MM NOT_NAMED 1933-10-12 06:00:00 NR 8.61243 136.975 main 1053 1052 __________P___ -1 8.61243 136.975 7 12 289
1933285N08138 1933 65 WP MM NOT_NAMED 1933-10-12 09:00:00 NR 8.82018 136.400 main 1068 1065 __________P___ -1 8.82018 136.400 7 12 291
1933285N08138 1933 65 WP MM NOT_NAMED 1933-10-12 10:00:00 NR 8.90000 136.200 main 1065 1024 __________O___ -1 8.90000 136.200 7 13 293
1933285N08138 1933 65 WP MM NOT_NAMED 1933-10-12 12:00:00 NR 9.07682 135.788 main 1024 963 __________P___ -1 9.07682 135.788 7 14 295
1933285N08138 1933 65 WP MM NOT_NAMED 1933-10-12 15:00:00 NR 9.37372 135.157 main 965 897 __________P___ -1 9.37372 135.157 7 14 296
1933285N08138 1933 65 WP MM NOT_NAMED 1933-10-12 18:00:00 NR 9.68896 134.540 main 897 853 __________P___ -1 9.68896 134.540 7 13 298
1933285N08138 1933 65 WP MM NOT_NAMED 1933-10-12 21:00:00 NR 10.0006 133.972 main 853 835 __________P___ -1 10.0006 133.972 7 13 299
1933285N08138 1933 65 WP MM NOT_NAMED 1933-10-12 22:00:00 NR 10.1000 133.800 main 835 805 __________O___ -1 10.1000 133.800 7 11 300
1933285N08138 1933 65 WP MM NOT_NAMED 1933-10-13 00:00:00 NR 10.2777 133.488 main 807 769 __________P___ -1 10.2777 133.488 7 10 301
1933285N08138 1933 65 WP MM NOT_NAMED 1933-10-13 03:00:00 NR 10.5320 133.076 main 769 734 __________P___ -1 10.5320 133.076 7 9 303
1933285N08138 1933 65 WP MM NOT_NAMED 1933-10-13 06:00:00 NR 10.7771 132.719 main 734 708 __________P___ -1 10.7771 132.719 7 8 306
1933285N08138 1933 65 WP MM NOT_NAMED 1933-10-13 09:00:00 NR 11.0190 132.400 main 708 701 __________P___ -1 11.0190 132.400 7 8 308
1933285N08138 1933 65 WP MM NOT_NAMED 1933-10-13 10:00:00 NR 11.1000 132.300 main 701 683 __________O___ -1 11.1000 132.300 7 8 310
1933285N08138 1933 65 WP MM NOT_NAMED 1933-10-13 12:00:00 NR 11.2797 132.078 main 687 657 __________P___ -1 11.2797 132.078 7 8 311
1933285N08138 1933 65 WP MM NOT_NAMED 1933-10-13 15:00:00 NR 11.5496 131.770 main 657 628 __________P___ -1 11.5496 131.770 7 8 313
1933285N08138 1933 65 WP MM NOT_NAMED 1933-10-13 18:00:00 NR 11.8061 131.498 main 628 610 __________P___ -1 11.8061 131.498 7 7 314
1933285N08138 1933 65 WP MM NOT_NAMED 1933-10-13 21:00:00 NR 12.0334 131.267 main 610 601 __________P___ -1 12.0334 131.267 7 6 315
1933285N08138 1933 65 WP MM NOT_NAMED 1933-10-13 22:00:00 NR 12.1000 131.200 main 601 590 __________O___ -1 12.1000 131.200 7 5 313
1933285N08138 1933 65 WP MM NOT_NAMED 1933-10-14 00:00:00 NR 12.2092 131.074 main 593 574 __________P___ -1 12.2092 131.074 7 4 312
1933285N08138 1933 65 WP MM NOT_NAMED 1933-10-14 03:00:00 NR 12.3414 130.924 main 574 566 __________P___ -1 12.3414 130.924 7 4 313
1933285N08138 1933 65 WP MM NOT_NAMED 1933-10-14 06:00:00 NR 12.4525 130.810 main 569 559 __________P___ -1 12.4525 130.810 7 3 318
1933285N08138 1933 65 WP MM NOT_NAMED 1933-10-14 09:00:00 NR 12.5611 130.724 main 562 562 __________P___ -1 12.5611 130.724 7 3 324
1933285N08138 1933 65 WP MM NOT_NAMED 1933-10-14 10:00:00 NR 12.6000 130.700 main 562 562 __________O___ -1 12.6000 130.700 7 3 334
1933285N08138 1933 65 WP MM NOT_NAMED 1933-10-14 12:00:00 NR 12.6943 130.652 main 566 556 __________P___ -1 12.6943 130.652 7 3 339
1933285N08138 1933 65 WP MM NOT_NAMED 1933-10-14 15:00:00 NR 12.8420 130.599 main 558 559 __________P___ -1 12.8420 130.599 7 3 343
1933285N08138 1933 65 WP MM NOT_NAMED 1933-10-14 18:00:00 NR 12.9945 130.558 main 560 550 __________P___ -1 12.9945 130.558 7 3 346
1933285N08138 1933 65 WP MM NOT_NAMED 1933-10-14 21:00:00 NR 13.1488 130.516 main 552 554 __________P___ -1 13.1488 130.516 7 3 345
1933285N08138 1933 65 WP MM NOT_NAMED 1933-10-14 22:00:00 NR 13.2000 130.500 main 554 554 __________O___ -1 13.2000 130.500 2 3 337
1933285N08138 1933 65 WP MM NOT_NAMED 1933-10-15 00:00:00 NR 13.2948 130.453 main 556 545 __________P___ -1 13.2948 130.453 2 3 333
1933285N08138 1933 65 WP MM NOT_NAMED 1933-10-15 03:00:00 NR 13.4368 130.376 main 548 540 __________P___ -1 13.4368 130.376 2 3 332
1933285N08138 1933 65 WP MM NOT_NAMED 1933-10-15 06:00:00 NR 13.5842 130.298 main 543 536 __________P___ -1 13.5842 130.298 2 3 334
1933285N08138 1933 65 WP MM NOT_NAMED 1933-10-15 09:00:00 NR 13.7433 130.223 main 536 540 __________P___ -1 13.7433 130.223 2 4 335
1933285N08138 1933 65 WP MM NOT_NAMED 1933-10-15 10:00:00 NR 13.8000 130.200 main 540 540 __________O___ -1 13.8000 130.200 2 3 340
1933285N08138 1933 65 WP MM NOT_NAMED 1933-10-15 12:00:00 NR 13.8773 130.171 main 543 537 __________P___ -1 13.8773 130.171 2 3 341
1933285N08138 1933 65 WP MM NOT_NAMED 1933-10-15 15:00:00 NR 14.0049 130.135 main 537 537 __________P___ -1 14.0049 130.135 2 3 345
1933285N08138 1933 65 WP MM NOT_NAMED 1933-10-15 18:00:00 NR 14.1882 130.092 main 546 545 __________P___ -1 14.1882 130.092 2 5 348
1933285N08138 1933 65 WP MM NOT_NAMED 1933-10-15 21:00:00 NR 14.4739 130.029 main 550 550 __________P___ -1 14.4739 130.029 2 6 348
1933285N08138 1933 65 WP MM NOT_NAMED 1933-10-15 22:00:00 NR 14.6000 130.000 main 556 556 __________O___ -1 14.6000 130.000 2 9 347
1933285N08138 1933 65 WP MM NOT_NAMED 1933-10-16 00:00:00 NR 14.9301 129.923 main 563 569 __________P___ -1 14.9301 129.923 2 12 347
1933285N08138 1933 65 WP MM NOT_NAMED 1933-10-16 03:00:00 NR 15.5328 129.782 main 593 599 __________P___ -1 15.5328 129.782 2 13 347
1933285N08138 1933 65 WP MM NOT_NAMED 1933-10-16 06:00:00 NR 16.2061 129.622 main 615 615 __________P___ -1 16.2061 129.622 2 14 347
1933285N08138 1933 65 WP MM NOT_NAMED 1933-10-16 09:00:00 NR 16.8842 129.455 main 641 632 __________P___ -1 16.8842 129.455 2 14 347
1933285N08138 1933 65 WP MM NOT_NAMED 1933-10-16 10:00:00 NR 17.1000 129.400 main 644 644 __________O___ -1 17.1000 129.400 2 13 346
1933285N08138 1933 65 WP MM NOT_NAMED 1933-10-16 12:00:00 NR 17.4964 129.295 main 661 661 __________P___ -1 17.4964 129.295 2 12 346
1933285N08138 1933 65 WP MM NOT_NAMED 1933-10-16 15:00:00 NR 18.0663 129.137 main 688 688 __________P___ -1 18.0663 129.137 2 11 345
1933285N08138 1933 65 WP MM NOT_NAMED 1933-10-16 18:00:00 NR 18.5928 128.984 main 706 688 __________P___ -1 18.5928 128.984 2 10 344
1933285N08138 1933 65 WP MM NOT_NAMED 1933-10-16 21:00:00 NR 19.0601 128.843 main 688 688 __________P___ -1 19.0601 128.843 2 10 344
1933285N08138 1933 65 WP MM NOT_NAMED 1933-10-16 22:00:00 NR 19.2000 128.800 main 690 682 __________O___ -1 19.2000 128.800 2 8 346
1933285N08138 1933 65 WP MM NOT_NAMED 1933-10-17 00:00:00 NR 19.4565 128.729 main 684 680 __________P___ -1 19.4565 128.729 2 7 345
1933285N08138 1933 65 WP MM NOT_NAMED 1933-10-17 03:00:00 NR 19.7847 128.636 main 680 678 __________P___ -1 19.7847 128.636 2 6 344
1933285N08138 1933 65 WP MM NOT_NAMED 1933-10-17 06:00:00 NR 20.0645 128.546 main 678 674 __________P___ -1 20.0645 128.546 2 6 341
1933285N08138 1933 65 WP MM NOT_NAMED 1933-10-17 09:00:00 NR 20.3177 128.441 main 674 674 __________P___ -1 20.3177 128.441 2 5 338
1933285N08138 1933 65 WP MM NOT_NAMED 1933-10-17 10:00:00 NR 20.4000 128.400 main 677 671 __________O___ -1 20.4000 128.400 2 6 334
1933285N08138 1933 65 WP MM NOT_NAMED 1933-10-17 12:00:00 NR 20.5886 128.303 main 675 664 __________P___ -1 20.5886 128.303 2 6 332
1933285N08138 1933 65 WP MM NOT_NAMED 1933-10-17 15:00:00 NR 20.8591 128.139 main 668 663 __________P___ -1 20.8591 128.139 2 6 328
1933285N08138 1933 65 WP MM NOT_NAMED 1933-10-17 18:00:00 NR 21.1091 127.958 main 668 655 __________P___ -1 21.1091 127.958 2 6 324
1933285N08138 1933 65 WP MM NOT_NAMED 1933-10-17 21:00:00 NR 21.3325 127.765 main 660 656 __________P___ -1 21.3325 127.765 2 6 320
1933285N08138 1933 65 WP MM NOT_NAMED 1933-10-17 22:00:00 NR 21.4000 127.700 main 656 653 __________O___ -1 21.4000 127.700 2 5 319
1933285N08138 1933 65 WP MM NOT_NAMED 1933-10-18 00:00:00 NR 21.5306 127.580 main 653 636 __________P___ -1 21.5306 127.580 2 5 317
1933285N08138 1933 65 WP MM NOT_NAMED 1933-10-18 03:00:00 NR 21.7015 127.394 main 636 613 __________P___ -1 21.7015 127.394 2 5 311
1933285N08138 1933 65 WP MM NOT_NAMED 1933-10-18 06:00:00 NR 21.8452 127.196 main 613 587 __________P___ -1 21.8452 127.196 2 5 304
1933285N08138 1933 65 WP MM NOT_NAMED 1933-10-18 09:00:00 NR 21.9649 126.978 main 587 577 __________P___ -1 21.9649 126.978 2 5 300
1933285N08138 1933 65 WP MM NOT_NAMED 1933-10-18 10:00:00 NR 22.0000 126.900 main 577 555 __________O___ -1 22.0000 126.900 2 5 292
1933285N08138 1933 65 WP MM NOT_NAMED 1933-10-18 12:00:00 NR 22.0567 126.731 main 555 535 __________P___ -1 22.0567 126.731 2 5 287
1933285N08138 1933 65 WP MM NOT_NAMED 1933-10-18 15:00:00 NR 22.1225 126.458 main 535 502 __________P___ -1 22.1225 126.458 2 5 284
1933285N08138 1933 65 WP MM NOT_NAMED 1933-10-18 18:00:00 NR 22.1848 126.175 main 502 470 __________P___ -1 22.1848 126.175 2 5 285
1933285N08138 1933 65 WP MM NOT_NAMED 1933-10-18 21:00:00 NR 22.2653 125.892 main 470 459 __________P___ -1 22.2653 125.892 2 5 288
1933285N08138 1933 65 WP MM NOT_NAMED 1933-10-18 22:00:00 NR 22.3000 125.800 main 459 437 __________O___ -1 22.3000 125.800 4 5 295
1933285N08138 1933 65 WP MM NOT_NAMED 1933-10-19 00:00:00 NR 22.3779 125.630 main 437 415 __________P___ -1 22.3779 125.630 4 5 300
1933285N08138 1933 65 WP MM NOT_NAMED 1933-10-19 03:00:00 NR 22.5198 125.381 main 415 381 __________P___ -1 22.5198 125.381 4 6 305
1933285N08138 1933 65 WP MM NOT_NAMED 1933-10-19 06:00:00 NR 22.6973 125.135 main 381 353 __________P___ -1 22.6973 125.135 4 6 311
1933285N08138 1933 65 WP MM NOT_NAMED 1933-10-19 09:00:00 NR 22.9165 124.885 main 353 339 __________P___ -1 22.9165 124.885 4 7 314
1933285N08138 1933 65 WP MM NOT_NAMED 1933-10-19 10:00:00 NR 23.0000 124.800 main 339 315 __________O___ -1 23.0000 124.800 4 7 304
1933285N08138 1933 65 WP MM NOT_NAMED 1933-10-19 12:00:00 NR 23.1224 124.551 main 315 269 __________P___ -1 23.1224 124.551 4 8 301
1933285N08138 1933 65 WP MM NOT_NAMED 1933-10-19 15:00:00 NR 23.3421 124.169 main 269 221 __________P___ -1 23.3421 124.169 4 8 310
1933285N08138 1933 65 WP MM NOT_NAMED 1933-10-19 18:00:00 NR 23.6524 123.856 main 221 187 __________P___ -1 23.6524 123.856 4 9 331
1933285N08138 1933 65 WP MM NOT_NAMED 1933-10-19 21:00:00 NR 24.1071 123.701 main 187 183 __________P___ -1 24.1071 123.701 4 10 348
1933285N08138 1933 65 WP MM NOT_NAMED 1933-10-19 22:00:00 NR 24.3000 123.700 main 183 177 __________O___ -1 24.3000 123.700 4 13 7
1933285N08138 1933 65 WP MM NOT_NAMED 1933-10-20 00:00:00 NR 24.7546 123.786 main 182 181 __________P___ -1 24.7546 123.786 4 16 16
1933285N08138 1933 65 WP MM NOT_NAMED 1933-10-20 03:00:00 NR 25.5815 124.106 main 221 221 __________P___ -1 25.5815 124.106 4 19 22
1933285N08138 1933 65 WP MM NOT_NAMED 1933-10-20 06:00:00 NR 26.5331 124.596 main 309 315 __________P___ -1 26.5331 124.596 4 22 26
1933285N08138 1933 65 WP MM NOT_NAMED 1933-10-20 09:00:00 NR 27.5539 125.191 main 360 357 __________P___ -1 27.5539 125.191 4 23 28
1933285N08138 1933 65 WP MM NOT_NAMED 1933-10-20 10:00:00 NR 27.9000 125.400 main 362 __________O___ -1 27.9000 125.400 4 24 28

Digital Typhoon Data and Search

About IBTrACS Database

This database is a web-friendly format of International Best Track Archive for Climate Stewardship (IBTrACS), a global best track data archive curated by NOAA dating back to 1842.

Updated: 2021-12-03